createdAt,value
2023-02-26T00:01:58.983Z,0.70
2023-02-26T00:04:27.133Z,0.80
2023-02-26T00:06:58.198Z,0.80
2023-02-26T00:09:27.716Z,0.80
2023-02-26T00:11:56.309Z,0.80
2023-02-26T00:14:27.006Z,0.90
2023-02-26T00:17:15.101Z,1.00
2023-02-26T00:19:43.834Z,1.00
2023-02-26T00:22:12.828Z,1.20
2023-02-26T00:24:40.826Z,1.20
2023-02-26T00:27:10.832Z,0.90
2023-02-26T00:29:41.238Z,1.00
2023-02-26T00:32:11.366Z,1.10
2023-02-26T00:34:40.452Z,0.90
2023-02-26T00:37:21.982Z,1.00
2023-02-26T00:40:00.905Z,1.20
2023-02-26T00:42:30.235Z,1.10
2023-02-26T00:45:01.930Z,0.90
2023-02-26T00:47:37.262Z,0.80
2023-02-26T00:50:18.399Z,0.70
2023-02-26T00:53:02.155Z,0.60
2023-02-26T00:55:30.648Z,0.60
2023-02-26T00:57:59.244Z,0.70
2023-02-26T01:00:28.921Z,0.70
2023-02-26T01:02:57.646Z,0.70
2023-02-26T01:05:26.901Z,0.70
2023-02-26T01:08:04.118Z,0.70
2023-02-26T01:10:33.724Z,0.90
2023-02-26T01:13:02.465Z,0.80
2023-02-26T01:15:33.120Z,0.80
2023-02-26T01:18:09.818Z,0.80
2023-02-26T01:20:44.863Z,0.80
2023-02-26T01:23:18.041Z,0.90
2023-02-26T01:25:54.726Z,0.80
2023-02-26T01:28:23.426Z,0.80
2023-02-26T01:31:00.563Z,0.70
2023-02-26T01:33:33.273Z,0.80
2023-02-26T01:36:09.405Z,0.70
2023-02-26T01:38:46.191Z,0.70
2023-02-26T01:41:31.185Z,1.00
2023-02-26T01:44:14.373Z,0.80
2023-02-26T01:47:07.534Z,0.80
2023-02-26T01:49:36.228Z,0.90
2023-02-26T01:52:06.962Z,0.90
2023-02-26T01:54:39.166Z,1.00
2023-02-26T01:57:10.509Z,1.00
2023-02-26T01:59:43.107Z,0.90
2023-02-26T02:02:14.845Z,0.90
2023-02-26T02:04:43.792Z,0.80
2023-02-26T02:07:12.203Z,0.60
2023-02-26T02:09:42.572Z,0.60
2023-02-26T02:12:27.039Z,0.50
2023-02-26T02:15:08.042Z,0.40
2023-02-26T02:17:48.519Z,0.20
2023-02-26T02:20:53.383Z,0.10
2023-02-26T02:23:28.494Z,0.10
2023-02-26T02:26:37.168Z,0.00
2023-02-26T02:29:34.625Z,0.00
2023-02-26T02:32:10.054Z,0.10
2023-02-26T02:34:47.003Z,0.10
2023-02-26T02:37:22.558Z,0.20
2023-02-26T02:39:54.702Z,0.20
2023-02-26T02:42:30.815Z,0.40
2023-02-26T02:45:05.067Z,0.40
2023-02-26T02:47:38.654Z,0.50
2023-02-26T02:50:13.234Z,0.50
2023-02-26T02:52:46.917Z,0.70
2023-02-26T02:55:21.231Z,0.70
2023-02-26T02:57:54.725Z,0.50
2023-02-26T03:00:25.268Z,0.60
2023-02-26T03:03:01.850Z,0.50
2023-02-26T03:05:30.015Z,0.60
2023-02-26T03:08:02.970Z,0.70
2023-02-26T03:10:31.550Z,0.80
2023-02-26T03:12:59.595Z,0.80
2023-02-26T03:15:38.705Z,1.00
2023-02-26T03:18:20.682Z,0.90
2023-02-26T03:21:05.680Z,0.70
2023-02-26T03:23:39.295Z,0.60
2023-02-26T03:26:13.236Z,0.60
2023-02-26T03:28:50.004Z,0.60
2023-02-26T03:31:24.292Z,0.60
2023-02-26T03:33:59.418Z,0.60
2023-02-26T03:36:34.750Z,0.70
2023-02-26T03:39:08.999Z,0.50
2023-02-26T03:41:44.202Z,0.30
2023-02-26T03:44:20.688Z,0.40
2023-02-26T03:46:54.076Z,0.40
2023-02-26T03:49:28.728Z,0.20
2023-02-26T03:51:58.311Z,0.00
2023-02-26T03:54:32.030Z,-0.20
2023-02-26T03:57:00.237Z,-0.30
2023-02-26T03:59:28.511Z,-0.50
2023-02-26T04:02:02.810Z,-0.50
2023-02-26T04:04:42.444Z,-0.50
2023-02-26T04:07:12.821Z,-0.50
2023-02-26T04:09:43.084Z,-0.60
2023-02-26T04:12:11.383Z,-0.60
2023-02-26T04:14:39.425Z,-0.50
2023-02-26T04:17:07.725Z,-0.70
2023-02-26T04:19:37.048Z,-0.70
2023-02-26T04:22:05.197Z,-0.70
2023-02-26T04:24:33.238Z,-0.70
2023-02-26T04:27:01.326Z,-0.60
2023-02-26T04:29:29.402Z,-0.60
2023-02-26T04:31:57.472Z,-0.70
2023-02-26T04:34:25.698Z,-0.70
2023-02-26T04:36:55.025Z,-0.70
2023-02-26T04:39:25.200Z,-0.70
2023-02-26T04:41:53.394Z,-0.60
2023-02-26T04:44:21.401Z,-0.50
2023-02-26T04:46:49.392Z,-0.50
2023-02-26T04:49:17.592Z,-0.40
2023-02-26T04:51:45.592Z,-0.40
2023-02-26T04:54:15.008Z,-0.30
2023-02-26T04:56:45.966Z,-0.20
2023-02-26T04:59:13.910Z,0.00
2023-02-26T05:01:44.281Z,-0.10
2023-02-26T05:04:12.399Z,-0.20
2023-02-26T05:06:40.484Z,-0.20
2023-02-26T05:09:08.818Z,-0.30
2023-02-26T05:11:38.165Z,-0.10
2023-02-26T05:14:06.132Z,-0.20
2023-02-26T05:16:34.127Z,-0.30
2023-02-26T05:19:02.140Z,-0.40
2023-02-26T05:21:30.149Z,-0.50
2023-02-26T05:23:58.347Z,-0.30
2023-02-26T05:26:26.980Z,-0.40
2023-02-26T05:28:56.431Z,-0.40
2023-02-26T05:31:24.927Z,-0.10
2023-02-26T05:33:52.941Z,-0.30
2023-02-26T05:36:21.041Z,-0.20
2023-02-26T05:38:49.015Z,-0.40
2023-02-26T05:41:17.076Z,-0.30
2023-02-26T05:43:45.129Z,-0.10
2023-02-26T05:46:15.067Z,-0.40
2023-02-26T05:48:45.698Z,-0.50
2023-02-26T05:51:13.898Z,-0.70
2023-02-26T05:53:41.953Z,-0.70
2023-02-26T05:56:09.972Z,-0.80
2023-02-26T05:58:39.114Z,-0.50
2023-02-26T06:01:07.310Z,-0.60
2023-02-26T06:03:37.251Z,-0.50
2023-02-26T06:06:05.783Z,-0.40
2023-02-26T06:08:33.791Z,-0.40
2023-02-26T06:11:01.757Z,-0.40
2023-02-26T06:13:29.744Z,-0.50
2023-02-26T06:15:57.833Z,-0.60
2023-02-26T06:18:25.893Z,-0.70
2023-02-26T06:20:55.371Z,-0.80
2023-02-26T06:23:23.382Z,-0.60
2023-02-26T06:25:52.376Z,-0.60
2023-02-26T06:28:21.126Z,-0.60
2023-02-26T06:30:49.191Z,-0.70
2023-02-26T06:33:17.197Z,-0.80
2023-02-26T06:35:45.217Z,-0.70
2023-02-26T06:38:14.883Z,-0.80
2023-02-26T06:40:43.108Z,-0.80
2023-02-26T06:43:11.444Z,-0.80
2023-02-26T06:45:39.535Z,-0.70
2023-02-26T06:48:07.581Z,-0.50
2023-02-26T06:50:35.690Z,-0.30
2023-02-26T06:53:03.707Z,-0.30
2023-02-26T06:55:33.121Z,-0.30
2023-02-26T06:58:01.176Z,-0.20
2023-02-26T07:00:29.189Z,-0.10
2023-02-26T07:02:58.227Z,0.20
2023-02-26T07:05:26.257Z,0.20
2023-02-26T07:07:54.293Z,0.30
2023-02-26T07:10:22.440Z,0.10
2023-02-26T07:12:51.843Z,-0.10
2023-02-26T07:15:20.023Z,0.10
2023-02-26T07:17:48.053Z,0.10
2023-02-26T07:20:16.304Z,0.20
2023-02-26T07:22:44.310Z,0.30
2023-02-26T07:25:13.405Z,0.40
2023-02-26T07:27:43.738Z,0.50
2023-02-26T07:30:15.366Z,0.60
2023-02-26T07:32:43.509Z,0.70
2023-02-26T07:35:12.081Z,1.40
2023-02-26T07:37:40.261Z,2.20
2023-02-26T07:40:10.505Z,3.00
2023-02-26T07:42:41.713Z,3.40
2023-02-26T07:45:10.609Z,3.80
2023-02-26T07:47:40.049Z,4.30
2023-02-26T07:50:09.147Z,5.00
2023-02-26T07:52:37.231Z,5.20
2023-02-26T07:55:06.280Z,4.60
2023-02-26T07:57:34.321Z,4.60
2023-02-26T08:00:02.447Z,4.80
2023-02-26T08:02:30.485Z,4.80
2023-02-26T08:04:59.821Z,5.00
2023-02-26T08:07:27.905Z,5.40
2023-02-26T08:09:56.195Z,5.30
2023-02-26T08:12:24.197Z,5.60
2023-02-26T08:14:52.194Z,6.10
2023-02-26T08:17:20.199Z,5.90
2023-02-26T08:19:48.440Z,5.40
2023-02-26T08:22:17.904Z,4.90
2023-02-26T08:24:46.315Z,4.90
2023-02-26T08:27:14.427Z,4.60
2023-02-26T08:29:42.745Z,4.40
2023-02-26T08:32:10.976Z,4.50
2023-02-26T08:34:39.139Z,5.10
2023-02-26T08:37:09.279Z,5.90
2023-02-26T08:39:39.224Z,6.10
2023-02-26T08:42:08.966Z,6.30
2023-02-26T08:44:37.044Z,5.60
2023-02-26T08:47:05.135Z,5.50
2023-02-26T08:49:33.205Z,5.00
2023-02-26T08:52:01.285Z,4.70
2023-02-26T08:54:29.325Z,4.20
2023-02-26T08:56:58.702Z,4.30
2023-02-26T08:59:27.074Z,4.30
2023-02-26T09:01:55.106Z,4.50
2023-02-26T09:04:23.468Z,4.70
2023-02-26T09:06:52.629Z,5.20
2023-02-26T09:09:20.925Z,6.10
2023-02-26T09:11:49.066Z,6.30
2023-02-26T09:14:18.387Z,6.50
2023-02-26T09:16:46.515Z,6.80
2023-02-26T09:19:14.596Z,6.80
2023-02-26T09:21:45.409Z,6.30
2023-02-26T09:24:13.440Z,7.50
2023-02-26T09:26:41.497Z,8.60
2023-02-26T09:29:09.543Z,8.90
2023-02-26T09:31:39.100Z,8.90
2023-02-26T09:34:08.147Z,9.00
2023-02-26T09:36:37.573Z,9.50
2023-02-26T09:39:05.835Z,9.20
2023-02-26T09:41:40.669Z,9.40
2023-02-26T09:44:28.442Z,10.20
2023-02-26T09:47:07.029Z,10.40
2023-02-26T09:49:55.685Z,10.50
2023-02-26T09:52:28.953Z,10.80
2023-02-26T09:55:02.247Z,10.00
2023-02-26T09:57:33.779Z,9.80
2023-02-26T10:00:04.228Z,9.20
2023-02-26T10:02:46.091Z,8.50
2023-02-26T10:05:22.694Z,8.40
2023-02-26T10:07:59.229Z,8.40
2023-02-26T10:10:37.009Z,9.00
2023-02-26T10:13:06.116Z,9.50
2023-02-26T10:15:40.467Z,10.40
2023-02-26T10:18:17.441Z,11.50
2023-02-26T10:20:56.537Z,12.30
2023-02-26T10:23:33.430Z,11.90
2023-02-26T10:26:08.923Z,11.70
2023-02-26T10:28:57.300Z,10.10
2023-02-26T10:31:33.824Z,10.10
2023-02-26T10:34:18.119Z,9.70
2023-02-26T10:36:53.354Z,10.40
2023-02-26T10:39:33.098Z,10.20
2023-02-26T10:42:06.649Z,9.70
2023-02-26T10:44:41.586Z,10.20
2023-02-26T10:47:18.198Z,9.40
2023-02-26T10:49:55.993Z,9.00
2023-02-26T10:52:27.530Z,9.50
2023-02-26T10:55:37.253Z,10.30
2023-02-26T10:58:13.235Z,10.90
2023-02-26T11:00:44.037Z,10.20
2023-02-26T11:03:19.188Z,9.50
2023-02-26T11:05:49.161Z,9.70
2023-02-26T11:08:21.825Z,9.00
2023-02-26T11:10:55.730Z,8.40
2023-02-26T11:13:24.729Z,7.00
2023-02-26T11:15:54.935Z,7.00
2023-02-26T11:18:30.722Z,7.00
2023-02-26T11:21:03.047Z,6.40
2023-02-26T11:23:33.970Z,6.50
2023-02-26T11:26:07.631Z,6.30
2023-02-26T11:28:39.408Z,6.40
2023-02-26T11:31:11.326Z,6.00
2023-02-26T11:33:42.273Z,6.10
2023-02-26T11:36:18.218Z,5.90
2023-02-26T11:38:48.580Z,5.80
2023-02-26T11:41:18.757Z,5.90
2023-02-26T11:43:50.716Z,5.90
2023-02-26T11:46:18.991Z,5.60
2023-02-26T11:48:49.989Z,5.60
2023-02-26T11:51:22.701Z,5.80
2023-02-26T11:53:53.905Z,6.00
2023-02-26T11:56:28.353Z,6.60
2023-02-26T11:58:56.841Z,7.30
2023-02-26T12:01:30.426Z,7.90
2023-02-26T12:04:02.512Z,8.10
2023-02-26T12:06:32.432Z,7.80
2023-02-26T12:09:00.629Z,8.00
2023-02-26T12:12:04.338Z,8.10
2023-02-26T12:15:01.334Z,7.60
2023-02-26T12:17:45.385Z,7.30
2023-02-26T12:20:21.467Z,6.90
2023-02-26T12:23:13.295Z,6.30
2023-02-26T12:26:19.903Z,6.00
2023-02-26T12:29:17.480Z,6.10
2023-02-26T12:32:16.688Z,6.50
2023-02-26T12:35:33.321Z,6.70
2023-02-26T12:38:15.997Z,7.00
2023-02-26T12:41:22.760Z,6.80
2023-02-26T12:43:52.620Z,6.90
2023-02-26T12:46:40.791Z,6.70
2023-02-26T12:49:56.278Z,6.70
2023-02-26T12:52:51.692Z,6.10
2023-02-26T12:55:34.638Z,5.70
2023-02-26T12:58:58.134Z,5.60
2023-02-26T13:01:59.630Z,5.50
2023-02-26T13:05:05.145Z,5.20
2023-02-26T13:07:53.952Z,5.30
2023-02-26T13:10:34.169Z,5.40
2023-02-26T13:13:19.839Z,5.80
2023-02-26T13:16:09.922Z,5.90
2023-02-26T13:18:49.827Z,6.10
2023-02-26T13:21:24.876Z,6.10
2023-02-26T13:23:55.935Z,5.50
2023-02-26T13:26:28.328Z,5.50
2023-02-26T13:29:00.279Z,5.30
2023-02-26T13:31:34.625Z,5.50
2023-02-26T13:34:13.588Z,5.60
2023-02-26T13:36:41.953Z,5.50
2023-02-26T13:39:30.455Z,5.40
2023-02-26T13:42:10.444Z,5.60
2023-02-26T13:44:52.790Z,5.40
2023-02-26T13:47:42.588Z,5.20
2023-02-26T13:50:30.819Z,5.10
2023-02-26T13:53:05.376Z,5.20
2023-02-26T13:55:42.901Z,5.20
2023-02-26T13:58:35.859Z,5.20
2023-02-26T14:01:11.951Z,4.80
2023-02-26T14:03:47.711Z,4.80
2023-02-26T14:06:39.119Z,4.70
2023-02-26T14:09:57.041Z,4.60
2023-02-26T14:12:44.194Z,4.70
2023-02-26T14:15:43.438Z,4.70
2023-02-26T14:18:31.641Z,4.90
2023-02-26T14:21:41.157Z,4.80
2023-02-26T14:24:19.870Z,5.00
2023-02-26T14:26:52.959Z,5.10
2023-02-26T14:29:27.544Z,5.10
2023-02-26T14:32:14.570Z,4.80
2023-02-26T14:34:52.711Z,4.90
2023-02-26T14:37:24.371Z,4.70
2023-02-26T14:39:58.616Z,4.50
2023-02-26T14:42:36.622Z,4.80
2023-02-26T14:45:18.510Z,4.50
2023-02-26T14:47:48.480Z,4.50
2023-02-26T14:50:18.996Z,4.50
2023-02-26T14:53:16.081Z,4.60
2023-02-26T14:56:00.760Z,4.70
2023-02-26T14:59:16.102Z,4.90
2023-02-26T15:01:54.991Z,4.90
2023-02-26T15:04:57.053Z,4.90
2023-02-26T15:07:45.998Z,4.80
2023-02-26T15:10:32.186Z,4.40
2023-02-26T15:13:24.561Z,4.60
2023-02-26T15:15:57.796Z,4.70
2023-02-26T15:18:55.713Z,4.40
2023-02-26T15:21:36.816Z,4.40
2023-02-26T15:24:07.729Z,4.40
2023-02-26T15:26:41.727Z,4.50
2023-02-26T15:29:13.457Z,4.40
2023-02-26T15:31:45.913Z,4.40
2023-02-26T15:34:17.840Z,4.50
2023-02-26T15:36:52.766Z,4.50
2023-02-26T15:39:26.432Z,4.70
2023-02-26T15:41:57.758Z,4.60
2023-02-26T15:44:32.058Z,4.40
2023-02-26T15:47:04.064Z,4.60
2023-02-26T15:49:38.601Z,4.50
2023-02-26T15:52:09.592Z,4.40
2023-02-26T15:54:48.800Z,4.30
2023-02-26T15:57:19.064Z,4.30
2023-02-26T15:59:49.772Z,4.30
2023-02-26T16:02:22.055Z,4.20
2023-02-26T16:04:53.237Z,4.00
2023-02-26T16:07:21.956Z,3.80
2023-02-26T16:09:54.227Z,3.70
2023-02-26T16:12:26.082Z,3.80
2023-02-26T16:15:00.427Z,3.60
2023-02-26T16:17:32.553Z,3.60
2023-02-26T16:20:11.128Z,3.60
2023-02-26T16:22:45.463Z,3.80
2023-02-26T16:25:20.362Z,3.80
2023-02-26T16:27:54.842Z,3.50
2023-02-26T16:30:30.776Z,3.60
2023-02-26T16:33:01.234Z,3.60
2023-02-26T16:35:35.778Z,3.50
2023-02-26T16:38:20.048Z,3.40
2023-02-26T16:40:57.572Z,3.30
2023-02-26T16:43:44.009Z,3.20
2023-02-26T16:46:18.746Z,3.30
2023-02-26T16:48:51.092Z,2.90
2023-02-26T16:51:24.009Z,3.00
2023-02-26T16:53:58.846Z,2.90
2023-02-26T16:56:31.116Z,2.90
2023-02-26T16:59:06.817Z,2.80
2023-02-26T17:01:39.526Z,2.90
2023-02-26T17:04:08.922Z,2.70
2023-02-26T17:06:42.003Z,2.80
2023-02-26T17:09:31.678Z,3.00
2023-02-26T17:12:16.987Z,2.90
2023-02-26T17:14:47.906Z,2.80
2023-02-26T17:17:16.060Z,2.60
2023-02-26T17:19:44.271Z,2.30
2023-02-26T17:22:17.748Z,2.50
2023-02-26T17:24:47.496Z,2.30
2023-02-26T17:27:23.526Z,2.20
2023-02-26T17:29:53.195Z,2.10
2023-02-26T17:32:24.837Z,2.10
2023-02-26T17:34:53.810Z,2.20
2023-02-26T17:37:25.994Z,2.20
2023-02-26T17:39:54.139Z,2.10
2023-02-26T17:42:23.035Z,2.20
2023-02-26T17:44:51.817Z,2.00
2023-02-26T17:47:23.143Z,1.90
2023-02-26T17:49:51.360Z,1.90
2023-02-26T17:52:19.428Z,2.10
2023-02-26T17:54:48.934Z,2.10
2023-02-26T17:57:20.003Z,2.00
2023-02-26T17:59:49.301Z,2.00
2023-02-26T18:02:19.770Z,2.20
2023-02-26T18:04:47.838Z,2.10
2023-02-26T18:07:17.859Z,2.30
2023-02-26T18:09:50.123Z,2.30
2023-02-26T18:12:25.560Z,2.20
2023-02-26T18:14:58.144Z,2.10
2023-02-26T18:17:29.578Z,2.10
2023-02-26T18:19:58.067Z,2.20
2023-02-26T18:22:27.582Z,2.30
2023-02-26T18:24:57.995Z,2.30
2023-02-26T18:27:27.681Z,2.10
2023-02-26T18:29:55.760Z,2.50
2023-02-26T18:32:27.705Z,2.30
2023-02-26T18:34:55.827Z,2.30
2023-02-26T18:37:27.318Z,2.30
2023-02-26T18:39:56.844Z,2.30
2023-02-26T18:42:27.554Z,2.30
2023-02-26T18:44:56.142Z,2.00
2023-02-26T18:47:24.316Z,2.00
2023-02-26T18:49:52.977Z,2.10
2023-02-26T18:52:21.003Z,2.00
2023-02-26T18:54:49.079Z,1.80
2023-02-26T18:57:18.554Z,2.00
2023-02-26T18:59:46.885Z,2.10
2023-02-26T19:02:15.023Z,2.20
2023-02-26T19:04:43.831Z,2.00
2023-02-26T19:07:12.165Z,1.90
2023-02-26T19:09:40.619Z,2.10
2023-02-26T19:12:10.889Z,2.20
2023-02-26T19:14:41.505Z,2.30
2023-02-26T19:17:09.500Z,2.20
2023-02-26T19:19:40.373Z,2.10
2023-02-26T19:22:08.744Z,2.00
2023-02-26T19:24:37.188Z,2.10
2023-02-26T19:27:05.437Z,2.20
2023-02-26T19:29:34.320Z,2.50
2023-02-26T19:32:04.497Z,2.00
2023-02-26T19:34:32.825Z,2.10
2023-02-26T19:37:03.423Z,2.20
2023-02-26T19:39:32.637Z,2.40
2023-02-26T19:42:01.616Z,2.10
2023-02-26T19:44:31.790Z,2.00
2023-02-26T19:47:00.518Z,2.00
2023-02-26T19:49:30.330Z,2.10
2023-02-26T19:51:58.375Z,2.20
2023-02-26T19:54:27.969Z,1.90
2023-02-26T19:56:56.088Z,1.80
2023-02-26T19:59:24.982Z,1.70
2023-02-26T20:01:53.016Z,1.90
2023-02-26T20:04:21.089Z,1.80
2023-02-26T20:06:50.589Z,1.70
2023-02-26T20:09:20.059Z,1.60
2023-02-26T20:11:50.438Z,1.70
2023-02-26T20:14:19.942Z,1.80
2023-02-26T20:16:48.003Z,1.80
2023-02-26T20:19:16.546Z,1.80
2023-02-26T20:21:44.978Z,1.80
2023-02-26T20:24:15.844Z,1.90
2023-02-26T20:26:45.689Z,1.90
2023-02-26T20:29:13.874Z,1.90
2023-02-26T20:31:47.263Z,2.10
2023-02-26T20:34:17.401Z,2.10
2023-02-26T20:36:45.942Z,1.90
2023-02-26T20:39:15.748Z,1.80
2023-02-26T20:41:43.806Z,1.80
2023-02-26T20:44:14.340Z,1.70
2023-02-26T20:46:45.704Z,1.70
2023-02-26T20:49:14.988Z,1.40
2023-02-26T20:51:44.200Z,1.30
2023-02-26T20:54:16.505Z,1.30
2023-02-26T20:56:45.883Z,1.40
2023-02-26T20:59:14.066Z,1.60
2023-02-26T21:01:42.214Z,1.70
2023-02-26T21:04:11.304Z,1.60
2023-02-26T21:06:39.634Z,1.60
2023-02-26T21:09:11.222Z,1.50
2023-02-26T21:11:41.661Z,1.30
2023-02-26T21:14:11.142Z,1.20
2023-02-26T21:16:40.650Z,1.10
2023-02-26T21:19:08.735Z,1.10
2023-02-26T21:21:36.771Z,1.00
2023-02-26T21:24:05.442Z,1.10
2023-02-26T21:26:35.035Z,1.10
2023-02-26T21:29:04.850Z,1.20
2023-02-26T21:31:35.464Z,0.90
2023-02-26T21:34:30.047Z,1.10
2023-02-26T21:36:52.133Z,1.20
2023-02-26T21:39:20.256Z,1.20
2023-02-26T21:41:48.253Z,1.20
2023-02-26T21:44:17.605Z,1.20
2023-02-26T21:46:45.664Z,1.20
2023-02-26T21:49:13.732Z,1.20
2023-02-26T21:51:41.804Z,1.10
2023-02-26T21:54:09.848Z,0.90
2023-02-26T21:56:37.990Z,0.80
2023-02-26T21:59:06.058Z,0.90
2023-02-26T22:01:35.844Z,0.90
2023-02-26T22:04:04.048Z,1.00
2023-02-26T22:06:32.134Z,1.00
2023-02-26T22:09:00.115Z,1.10
2023-02-26T22:11:28.579Z,1.00
2023-02-26T22:13:56.824Z,1.10
2023-02-26T22:16:24.998Z,1.20
2023-02-26T22:18:54.455Z,1.20
2023-02-26T22:21:24.013Z,0.80
2023-02-26T22:23:52.271Z,0.70
2023-02-26T22:26:20.278Z,0.70
2023-02-26T22:28:48.357Z,0.70
2023-02-26T22:31:16.391Z,0.80
2023-02-26T22:33:44.392Z,0.70
2023-02-26T22:36:13.788Z,0.50
2023-02-26T22:38:41.787Z,0.90
2023-02-26T22:41:09.828Z,0.80
2023-02-26T22:43:37.845Z,1.00
2023-02-26T22:46:06.242Z,0.80
2023-02-26T22:48:34.244Z,0.80
2023-02-26T22:51:02.251Z,0.80
2023-02-26T22:53:31.897Z,0.60
2023-02-26T22:56:00.521Z,0.60
2023-02-26T22:58:29.229Z,0.50
2023-02-26T23:01:01.555Z,0.40
2023-02-26T23:03:30.548Z,0.30
2023-02-26T23:06:02.078Z,0.50
2023-02-26T23:08:31.446Z,0.60
2023-02-26T23:11:01.769Z,0.30
2023-02-26T23:13:34.177Z,0.40
2023-02-26T23:16:02.673Z,0.50
2023-02-26T23:18:32.129Z,0.40
2023-02-26T23:21:00.819Z,0.40
2023-02-26T23:23:28.885Z,0.50
2023-02-26T23:25:58.357Z,0.60
2023-02-26T23:28:26.373Z,0.40
2023-02-26T23:30:54.431Z,0.40
2023-02-26T23:33:24.727Z,0.50
2023-02-26T23:35:52.703Z,0.40
2023-02-26T23:38:20.703Z,0.40
2023-02-26T23:40:49.352Z,0.40
2023-02-26T23:43:18.901Z,0.30
2023-02-26T23:45:46.873Z,0.40
2023-02-26T23:48:14.896Z,0.30
2023-02-26T23:50:42.853Z,0.20
2023-02-26T23:53:10.990Z,0.20
2023-02-26T23:55:40.485Z,0.00
2023-02-26T23:58:08.548Z,0.20
